Pomona, IL (62975)

05:12 CDT le 24 août 2016 (GMT -0500)
SIU Physical Plant | | Change Station
Avis météorologiques actifs: Flood Warning

Alt. 430 ft 37.71 °N, 89.22 °W | Updated 9 minutes ago

Partly Cloudy
Partiellement nuageux
74.9 ° F
Paraît 73 ° F
N
7.0
Vent Variable Vent de SO
Gusts 11.0 mph

Aujourd'hui
Haut(e) -- | Bas -- ° F
--% Risque de précip.
Hier
Haut(e) -- | Bas -- ° F
Precip. -- pouce
Pression 30.11 pouce
Visibilité 10.0 Miles terrestres
Nuages Peu 900 ft
indice de chaleur 73 ° F
Point de rosée 73 ° F
Humidité 93%
Précipitations 0.00 pouce
Profondeur de la couche neigeuse Non disponible.
6:21 AM 7:37 PM
Lune gibbeuse décroissante, 58% visible
SPECI KMDH 241002Z AUTO 16004KT 10SM FEW009 23/22 A3011 RMK AO2 T02330217
Pression 30.11 pouce
Visibilité 10.0 Miles terrestres
Nuages Peu 900 ft
indice de chaleur 73 ° F
Point de rosée 73 ° F
Humidité 93%
Précipitations 0.00 pouce
Profondeur de la couche neigeuse Non disponible.
6:21 AM 7:37 PM
Lune gibbeuse décroissante, 58% visible
SPECI KMDH 241002Z AUTO 16004KT 10SM FEW009 23/22 A3011 RMK AO2 T02330217

10-Day Weather Forecast

Almanac

Astronomie

Aug. 24, 2016 Lever Coucher
Temps réel
Crépuscule civil
Crépuscule nautique
Crépuscule astronomique
Lune
Durée de lumière visible
Longueur du jour
Tomorrow will be .
, % of the Moon is Illuminated

Extrêmes aujourd'hui

State Highs State Lows

Community

WunderPhotos

Upload Photos

1,934,560 Photos téléchargées !

WunderBlog® & News

Nearby

Qualité de l'air

  Qualité de l'air Indice de la qualité de l'air Polluant
Not available.

Épaisseur de neige

Station Depth Altitude

Activité sismique

Ville Distance Mag. Time & Date
Minimum magnitude displayed is 2.5.

Températures des eaux côtières

Lieu Température

Stations

Stations météo à proximité

Emplacement de la station Température Refroidissement éolien Point de rosée Humidité Vent Precip. Alt. Mise à jour Type
                   

Watches & Warnings

Flood Warning
Issued: 21:53 CDT Aug. 23, 2016 – National Weather Service

The Flood Warning continues for
the big Muddy river near Murphysboro.
* Until Saturday evening.
* At 9:30 PM Tuesday the stage was 26.0 feet.
* Flood stage is 22.0 feet.
* Minor flooding is occurring and minor flooding is forecast.
* Forecast... the river will continue to fall to below flood stage by
Saturday afternoon.
* Impact... at 24.0 feet... some minor flooding in S 3rd & division /
Plum street area.


Lat... Lon 3777 8946 3760 8947 3760 8941 3773 8935
      3778 8915 3784 8915